Terminal Aerodrome Forecast
Issued by NWS

Home | Current Version | Previous Version | Graphics & Text | Print | Product List | Glossary On
Versions: 1 2 3 4 5 6 7 8 9 10 11 12 13 14 15 16 17 18
535
FTUS43 KGRB 260520
TAFCWA
TAF
KCWA 260520Z 2606/2706 05010KT P6SM SCT003 OVC006
      TEMPO 2606/2608 BKN003
     FM260800 05011KT P6SM OVC003
     FM261500 07012G17KT P6SM BKN006 OVC010
     FM261700 07011G16KT P6SM BKN010 OVC018
     FM262200 07009KT P6SM BKN020 BKN030
     FM270200 07008KT P6SM SCT028 SCT035
      AMD LTD TO CLD VIS AND WIND TIL 261100=

USA.gov is the U.S. government's official web portal to all federal, state and local government web resources and services.